createdAt,value
2022-11-23T00:01:38.904Z,7.00
2022-11-23T00:04:40.980Z,6.80
2022-11-23T00:07:43.087Z,6.49
2022-11-23T00:10:45.233Z,6.56
2022-11-23T00:13:47.611Z,6.56
2022-11-23T00:16:49.671Z,6.32
2022-11-23T00:19:51.738Z,6.21
2022-11-23T00:22:53.795Z,6.00
2022-11-23T00:25:55.865Z,5.95
2022-11-23T00:28:57.939Z,5.55
2022-11-23T00:32:02.269Z,5.26
2022-11-23T00:35:04.765Z,5.49
2022-11-23T00:38:07.113Z,5.26
2022-11-23T00:41:12.185Z,5.45
2022-11-23T00:44:14.301Z,5.32
2022-11-23T00:47:16.381Z,5.39
2022-11-23T00:50:18.600Z,5.32
2022-11-23T00:53:20.667Z,5.07
2022-11-23T00:56:22.795Z,5.27
2022-11-23T00:59:24.869Z,5.36
2022-11-23T01:02:29.088Z,5.16
2022-11-23T01:05:31.206Z,5.34
2022-11-23T01:08:34.946Z,4.98
2022-11-23T01:11:37.045Z,5.03
2022-11-23T01:14:39.170Z,5.21
2022-11-23T01:17:41.222Z,5.32
2022-11-23T01:20:43.949Z,5.16
2022-11-23T01:23:46.061Z,5.37
2022-11-23T01:26:52.662Z,5.44
2022-11-23T01:29:55.292Z,5.46
2022-11-23T01:32:57.329Z,5.31
2022-11-23T01:35:59.941Z,5.19
2022-11-23T01:39:02.459Z,5.03
2022-11-23T01:42:08.656Z,5.05
2022-11-23T01:45:57.174Z,5.14
2022-11-23T01:49:04.607Z,5.09
2022-11-23T01:52:20.092Z,5.05
2022-11-23T01:55:22.143Z,4.83
2022-11-23T01:58:24.233Z,4.95
2022-11-23T02:01:26.380Z,4.81
2022-11-23T02:04:34.338Z,4.82
2022-11-23T02:07:36.398Z,4.81
2022-11-23T02:10:38.487Z,4.84
2022-11-23T02:13:46.269Z,4.76
2022-11-23T02:16:48.336Z,4.71
2022-11-23T02:20:13.542Z,4.87
2022-11-23T02:23:34.744Z,4.70
2022-11-23T02:26:37.327Z,4.83
2022-11-23T02:29:39.702Z,4.81
2022-11-23T02:32:42.890Z,4.79
2022-11-23T02:35:53.898Z,4.85
2022-11-23T02:38:59.180Z,5.04
2022-11-23T02:42:01.434Z,4.97
2022-11-23T02:45:16.355Z,4.75
2022-11-23T02:48:19.186Z,4.55
2022-11-23T02:51:21.208Z,4.41
2022-11-23T02:54:23.251Z,4.31
2022-11-23T02:57:26.524Z,4.58
2022-11-23T03:00:28.612Z,4.36
2022-11-23T03:03:30.689Z,4.37
2022-11-23T03:06:32.779Z,4.59
2022-11-23T03:09:34.980Z,4.87
2022-11-23T03:12:37.925Z,4.99
2022-11-23T03:15:40.324Z,5.25
2022-11-23T03:18:43.012Z,4.95
2022-11-23T03:21:45.165Z,5.09
2022-11-23T03:24:47.214Z,4.90
2022-11-23T03:27:51.519Z,4.93
2022-11-23T03:30:54.509Z,5.24
2022-11-23T03:33:57.540Z,5.01
2022-11-23T03:37:01.017Z,4.91
2022-11-23T03:40:03.214Z,4.94
2022-11-23T03:43:23.824Z,4.92
2022-11-23T03:46:25.890Z,4.56
2022-11-23T03:49:27.918Z,4.38
2022-11-23T03:52:29.972Z,4.20
2022-11-23T03:55:33.224Z,4.63
2022-11-23T03:58:35.842Z,4.70
2022-11-23T04:01:41.956Z,4.85
2022-11-23T04:04:50.848Z,4.67
2022-11-23T04:08:24.857Z,4.66
2022-11-23T04:11:28.307Z,4.12
2022-11-23T04:14:30.692Z,4.18
2022-11-23T04:17:34.025Z,4.16
2022-11-23T04:20:36.124Z,4.27
2022-11-23T04:23:38.279Z,4.10
2022-11-23T04:26:43.472Z,4.09
2022-11-23T04:29:46.637Z,4.03
2022-11-23T04:32:48.963Z,4.25
2022-11-23T04:35:51.101Z,4.22
2022-11-23T04:38:53.406Z,4.10
2022-11-23T04:42:01.668Z,4.11
2022-11-23T04:45:05.773Z,4.46
2022-11-23T04:48:07.915Z,4.29
2022-11-23T04:51:11.409Z,4.30
2022-11-23T04:54:14.044Z,4.30
2022-11-23T04:57:23.523Z,4.41
2022-11-23T05:00:27.505Z,4.09
2022-11-23T05:03:31.614Z,4.17
2022-11-23T05:06:35.786Z,4.21
2022-11-23T05:09:38.847Z,4.50
2022-11-23T05:12:48.486Z,4.71
2022-11-23T05:15:50.652Z,4.48
2022-11-23T05:18:58.788Z,4.54
2022-11-23T05:22:00.939Z,4.42
2022-11-23T05:25:03.759Z,4.55
2022-11-23T05:28:30.520Z,4.41
2022-11-23T05:31:34.120Z,4.56
2022-11-23T05:34:36.246Z,4.51
2022-11-23T05:37:39.746Z,4.67
2022-11-23T05:40:46.544Z,4.71
2022-11-23T05:43:49.962Z,4.48
2022-11-23T05:46:57.161Z,4.61
2022-11-23T05:50:00.011Z,4.61
2022-11-23T05:53:05.604Z,4.57
2022-11-23T05:56:08.060Z,4.71
2022-11-23T05:59:18.158Z,4.56
2022-11-23T06:02:25.656Z,4.65
2022-11-23T06:05:33.788Z,4.61
2022-11-23T06:08:36.233Z,4.91
2022-11-23T06:11:39.400Z,4.55
2022-11-23T06:14:48.041Z,4.47
2022-11-23T06:17:52.938Z,4.30
2022-11-23T06:21:02.428Z,4.37
2022-11-23T06:24:05.316Z,4.37
2022-11-23T06:27:08.118Z,4.31
2022-11-23T06:30:10.918Z,4.34
2022-11-23T06:33:13.225Z,4.48
2022-11-23T06:36:20.460Z,4.62
2022-11-23T06:39:25.241Z,4.62
2022-11-23T06:42:42.846Z,4.72
2022-11-23T06:45:58.270Z,4.73
2022-11-23T06:49:03.757Z,4.62
2022-11-23T06:52:05.977Z,4.55
2022-11-23T06:55:08.635Z,4.85
2022-11-23T06:58:10.833Z,4.74
2022-11-23T07:01:13.016Z,4.62
2022-11-23T07:04:22.238Z,4.60
2022-11-23T07:07:27.530Z,4.62
2022-11-23T07:10:39.066Z,4.56
2022-11-23T07:13:41.131Z,5.00
2022-11-23T07:16:43.890Z,4.96
2022-11-23T07:19:46.052Z,4.94
2022-11-23T07:22:48.261Z,4.63
2022-11-23T07:25:50.414Z,4.76
2022-11-23T07:28:52.501Z,4.76
2022-11-23T07:31:55.794Z,4.54
2022-11-23T07:35:00.333Z,4.52
2022-11-23T07:38:04.477Z,4.54
2022-11-23T07:41:06.840Z,4.51
2022-11-23T07:44:21.551Z,4.89
2022-11-23T07:47:24.660Z,4.95
2022-11-23T07:50:26.883Z,4.79
2022-11-23T07:53:28.974Z,4.68
2022-11-23T07:56:31.021Z,4.86
2022-11-23T07:59:33.286Z,4.79
2022-11-23T08:02:35.541Z,4.84
2022-11-23T08:05:37.669Z,4.72
2022-11-23T08:08:39.751Z,4.85
2022-11-23T08:11:42.207Z,4.92
2022-11-23T08:14:44.241Z,4.68
2022-11-23T08:17:46.264Z,4.82
2022-11-23T08:20:48.473Z,4.99
2022-11-23T08:23:50.529Z,4.77
2022-11-23T08:26:52.660Z,4.82
2022-11-23T08:29:54.760Z,4.89
2022-11-23T08:32:56.908Z,5.03
2022-11-23T08:36:06.019Z,4.80
2022-11-23T08:39:08.814Z,4.61
2022-11-23T08:42:10.833Z,4.86
2022-11-23T08:45:12.957Z,4.93
2022-11-23T08:48:15.041Z,4.98
2022-11-23T08:51:22.495Z,4.87
2022-11-23T08:54:24.699Z,4.71
2022-11-23T08:57:27.306Z,4.99
2022-11-23T09:00:29.674Z,4.88
2022-11-23T09:03:31.739Z,4.89
2022-11-23T09:06:34.593Z,4.92
2022-11-23T09:09:36.740Z,5.07
2022-11-23T09:12:38.840Z,4.89
2022-11-23T09:15:40.934Z,4.88
2022-11-23T09:18:42.961Z,4.88
2022-11-23T09:21:45.026Z,4.83
2022-11-23T09:24:47.100Z,4.79
2022-11-23T09:27:49.961Z,4.73
2022-11-23T09:30:52.498Z,4.88
2022-11-23T09:33:54.609Z,4.79
2022-11-23T09:36:59.658Z,4.83
2022-11-23T09:40:01.772Z,5.17
2022-11-23T09:43:35.721Z,5.05
2022-11-23T09:47:24.513Z,4.92
2022-11-23T09:50:59.450Z,4.90
2022-11-23T09:54:29.281Z,5.08
2022-11-23T09:57:32.533Z,5.00
2022-11-23T10:00:50.354Z,5.12
2022-11-23T10:03:52.412Z,4.92
2022-11-23T10:06:58.102Z,5.14
2022-11-23T10:10:29.325Z,5.08
2022-11-23T10:13:35.492Z,5.07
2022-11-23T10:17:09.581Z,4.85
2022-11-23T10:20:39.021Z,5.14
2022-11-23T10:23:54.676Z,5.05
2022-11-23T10:26:56.752Z,4.94
2022-11-23T10:29:58.972Z,5.07
2022-11-23T10:33:31.733Z,4.82
2022-11-23T10:36:36.438Z,4.96
2022-11-23T10:39:38.575Z,4.94
2022-11-23T10:42:49.713Z,5.05
2022-11-23T10:45:54.787Z,5.05
2022-11-23T10:49:15.647Z,5.04
2022-11-23T10:52:29.609Z,5.19
2022-11-23T10:55:33.845Z,4.95
2022-11-23T10:58:44.387Z,5.16
2022-11-23T11:01:59.005Z,5.20
2022-11-23T11:06:07.019Z,5.63
2022-11-23T11:09:03.395Z,5.37
2022-11-23T11:12:06.068Z,5.28
2022-11-23T11:15:12.187Z,5.27
2022-11-23T11:18:18.561Z,5.18
2022-11-23T11:21:34.538Z,5.55
2022-11-23T11:24:44.177Z,5.40
2022-11-23T11:27:51.949Z,5.33
2022-11-23T11:31:09.325Z,5.18
2022-11-23T11:34:48.114Z,5.68
2022-11-23T11:37:51.336Z,5.60
2022-11-23T11:40:53.574Z,5.55
2022-11-23T11:44:21.997Z,5.51
2022-11-23T11:47:43.701Z,5.36
2022-11-23T11:50:52.913Z,5.46
2022-11-23T11:54:25.240Z,5.33
2022-11-23T11:57:47.825Z,5.66
2022-11-23T12:00:49.918Z,5.82
2022-11-23T12:03:56.885Z,5.50
2022-11-23T12:07:27.518Z,5.66
2022-11-23T12:10:37.757Z,5.59
2022-11-23T12:13:42.956Z,5.49
2022-11-23T12:17:32.575Z,5.58
2022-11-23T12:20:41.273Z,5.85
2022-11-23T12:24:23.608Z,6.02
2022-11-23T12:28:11.212Z,6.26
2022-11-23T12:31:24.744Z,6.70
2022-11-23T12:34:41.702Z,7.26
2022-11-23T12:37:53.883Z,7.45
2022-11-23T12:41:50.764Z,8.34
2022-11-23T12:45:20.734Z,8.43
2022-11-23T12:49:03.166Z,9.48
2022-11-23T12:52:35.471Z,10.07
2022-11-23T12:55:48.489Z,10.75
2022-11-23T12:58:50.719Z,11.21
2022-11-23T13:01:59.338Z,11.95
2022-11-23T13:05:29.139Z,12.36
2022-11-23T13:09:28.674Z,10.87
2022-11-23T13:13:04.542Z,11.09
2022-11-23T13:16:31.315Z,9.98
2022-11-23T13:19:58.928Z,11.70
2022-11-23T13:23:01.579Z,12.53
2022-11-23T13:26:21.218Z,13.54
2022-11-23T13:29:51.200Z,14.10
2022-11-23T13:33:23.667Z,13.63
2022-11-23T13:36:56.589Z,14.80
2022-11-23T13:39:58.406Z,14.57
2022-11-23T13:43:18.561Z,15.45
2022-11-23T13:46:28.912Z,16.26
2022-11-23T13:49:35.485Z,16.02
2022-11-23T13:52:37.645Z,16.69
2022-11-23T13:55:39.888Z,15.99
2022-11-23T13:58:42.023Z,15.15
2022-11-23T14:02:22.733Z,15.36
2022-11-23T14:05:47.794Z,15.81
2022-11-23T14:09:17.524Z,15.33
2022-11-23T14:12:43.401Z,14.06
2022-11-23T14:15:55.983Z,13.68
2022-11-23T14:19:45.448Z,14.16
2022-11-23T14:23:21.150Z,14.64
2022-11-23T14:26:34.561Z,14.37
2022-11-23T14:30:14.557Z,13.91
2022-11-23T14:33:43.785Z,14.51
2022-11-23T14:37:23.950Z,13.93
2022-11-23T14:41:07.105Z,12.05
2022-11-23T14:44:11.848Z,9.93
2022-11-23T14:47:14.075Z,9.69
2022-11-23T14:50:28.358Z,9.77
2022-11-23T14:53:43.981Z,9.55
2022-11-23T14:56:50.507Z,9.57
2022-11-23T15:00:01.815Z,9.05
2022-11-23T15:03:48.837Z,9.34
2022-11-23T15:06:45.822Z,8.47
2022-11-23T15:10:18.156Z,8.72
2022-11-23T15:13:42.815Z,8.47
2022-11-23T15:16:45.062Z,8.49
2022-11-23T15:20:00.637Z,8.28
2022-11-23T15:23:03.198Z,8.46
2022-11-23T15:26:24.051Z,8.43
2022-11-23T15:29:37.353Z,8.32
2022-11-23T15:32:39.844Z,8.36
2022-11-23T15:35:42.023Z,8.14
2022-11-23T15:38:44.228Z,8.09
2022-11-23T15:41:47.283Z,7.81
2022-11-23T15:44:51.065Z,8.06
2022-11-23T15:48:01.518Z,7.82
2022-11-23T15:51:05.754Z,7.80
2022-11-23T15:54:23.073Z,7.59
2022-11-23T15:57:26.347Z,7.74
2022-11-23T16:00:28.657Z,7.73
2022-11-23T16:04:28.856Z,7.43
2022-11-23T16:07:30.860Z,7.65
2022-11-23T16:10:34.976Z,7.59
2022-11-23T16:13:39.062Z,7.51
2022-11-23T16:16:45.822Z,7.63
2022-11-23T16:19:55.431Z,7.46
2022-11-23T16:22:57.880Z,7.27
2022-11-23T16:26:04.564Z,7.50
2022-11-23T16:29:06.664Z,7.32
2022-11-23T16:32:41.239Z,7.27
2022-11-23T16:35:43.460Z,7.07
2022-11-23T16:38:45.493Z,7.06
2022-11-23T16:41:47.647Z,7.07
2022-11-23T16:44:49.684Z,7.00
2022-11-23T16:47:56.747Z,6.70
2022-11-23T16:50:58.788Z,6.76
2022-11-23T16:54:21.731Z,6.78
2022-11-23T16:57:33.857Z,6.80
2022-11-23T17:00:36.117Z,6.73
2022-11-23T17:03:41.248Z,6.83
2022-11-23T17:06:44.132Z,6.78
2022-11-23T17:09:46.792Z,6.73
2022-11-23T17:12:54.231Z,6.86
2022-11-23T17:15:56.676Z,6.88
2022-11-23T17:18:59.141Z,6.80
2022-11-23T17:22:01.477Z,6.50
2022-11-23T17:25:07.860Z,6.59
2022-11-23T17:28:16.412Z,6.51
2022-11-23T17:31:18.703Z,6.51
2022-11-23T17:34:21.076Z,6.48
2022-11-23T17:37:26.075Z,6.55
2022-11-23T17:40:28.418Z,6.62
2022-11-23T17:43:30.575Z,6.35
2022-11-23T17:46:33.827Z,6.23
2022-11-23T17:49:36.356Z,6.26
2022-11-23T17:52:42.135Z,6.30
2022-11-23T17:55:44.237Z,6.48
2022-11-23T17:58:46.537Z,6.63
2022-11-23T18:01:49.129Z,6.52
2022-11-23T18:05:00.759Z,6.72
2022-11-23T18:08:03.586Z,6.53
2022-11-23T18:11:13.631Z,6.34
2022-11-23T18:14:18.219Z,6.45
2022-11-23T18:17:48.078Z,6.31
2022-11-23T18:20:51.406Z,6.32
2022-11-23T18:23:53.737Z,6.46
2022-11-23T18:26:55.857Z,6.38
2022-11-23T18:29:58.085Z,6.29
2022-11-23T18:33:00.129Z,6.13
2022-11-23T18:36:05.330Z,6.23
2022-11-23T18:39:07.860Z,5.92
2022-11-23T18:42:09.917Z,5.92
2022-11-23T18:45:11.950Z,6.09
2022-11-23T18:48:14.310Z,6.43
2022-11-23T18:51:16.967Z,6.32
2022-11-23T18:54:19.182Z,6.36
2022-11-23T18:57:21.232Z,6.38
2022-11-23T19:00:23.693Z,6.36
2022-11-23T19:03:25.752Z,6.25
2022-11-23T19:06:27.854Z,6.42
2022-11-23T19:09:29.919Z,6.56
2022-11-23T19:12:32.089Z,6.73
2022-11-23T19:15:34.251Z,6.60
2022-11-23T19:18:36.407Z,6.59
2022-11-23T19:21:39.213Z,6.82
2022-11-23T19:24:41.303Z,6.64
2022-11-23T19:27:44.169Z,6.61
2022-11-23T19:30:46.257Z,6.73
2022-11-23T19:33:49.360Z,6.96
2022-11-23T19:36:51.408Z,7.10
2022-11-23T19:39:53.448Z,6.56
2022-11-23T19:42:55.477Z,6.67
2022-11-23T19:45:58.242Z,6.67
2022-11-23T19:49:00.496Z,6.67
2022-11-23T19:52:03.536Z,6.36
2022-11-23T19:55:08.308Z,6.52
2022-11-23T19:58:12.015Z,6.44
2022-11-23T20:01:18.259Z,6.35
2022-11-23T20:04:20.459Z,6.27
2022-11-23T20:07:22.664Z,6.25
2022-11-23T20:10:25.071Z,6.42
2022-11-23T20:13:27.125Z,6.49
2022-11-23T20:16:30.884Z,6.15
2022-11-23T20:19:33.185Z,6.21
2022-11-23T20:22:35.861Z,6.30
2022-11-23T20:25:38.654Z,6.33
2022-11-23T20:28:43.886Z,6.41
2022-11-23T20:31:46.160Z,6.25
2022-11-23T20:34:48.264Z,6.09
2022-11-23T20:37:50.355Z,6.21
2022-11-23T20:40:52.429Z,6.37
2022-11-23T20:44:03.182Z,6.14
2022-11-23T20:47:05.347Z,5.96
2022-11-23T20:50:08.310Z,6.20
2022-11-23T20:53:10.351Z,6.39
2022-11-23T20:56:13.525Z,6.69
2022-11-23T20:59:15.829Z,6.46
2022-11-23T21:02:17.943Z,6.16
2022-11-23T21:05:20.286Z,6.35
2022-11-23T21:08:33.108Z,6.25
2022-11-23T21:11:55.378Z,6.50
2022-11-23T21:14:57.531Z,6.34
2022-11-23T21:17:59.706Z,6.48
2022-11-23T21:21:02.833Z,6.51
2022-11-23T21:24:05.942Z,6.72
2022-11-23T21:27:10.294Z,6.65
2022-11-23T21:30:12.808Z,6.59
2022-11-23T21:33:14.841Z,6.74
2022-11-23T21:36:17.034Z,6.73
2022-11-23T21:39:19.227Z,6.76
2022-11-23T21:42:21.344Z,6.72
2022-11-23T21:45:23.429Z,6.51
2022-11-23T21:48:25.494Z,6.26
2022-11-23T21:51:29.996Z,6.34
2022-11-23T21:54:32.320Z,6.29
2022-11-23T21:57:34.557Z,6.27
2022-11-23T22:00:36.662Z,6.44
2022-11-23T22:03:55.595Z,6.50
2022-11-23T22:06:57.679Z,6.67
2022-11-23T22:09:59.718Z,6.13
2022-11-23T22:13:01.849Z,6.13
2022-11-23T22:16:32.555Z,6.34
2022-11-23T22:19:34.830Z,6.14
2022-11-23T22:22:36.880Z,6.30
2022-11-23T22:25:41.873Z,6.15
2022-11-23T22:28:48.796Z,6.20
2022-11-23T22:31:50.934Z,6.22
2022-11-23T22:34:53.013Z,6.75
2022-11-23T22:37:55.665Z,6.70
2022-11-23T22:40:58.483Z,6.42
2022-11-23T22:44:00.568Z,6.53
2022-11-23T22:47:02.660Z,6.06
2022-11-23T22:50:05.333Z,6.03
2022-11-23T22:53:07.485Z,6.02
2022-11-23T22:56:14.742Z,6.26
2022-11-23T22:59:16.809Z,6.33
2022-11-23T23:02:19.039Z,6.43
2022-11-23T23:05:21.176Z,6.58
2022-11-23T23:08:24.278Z,6.37
2022-11-23T23:11:28.698Z,6.20
2022-11-23T23:14:30.909Z,6.45
2022-11-23T23:17:33.149Z,6.78
2022-11-23T23:20:35.878Z,6.75
2022-11-23T23:23:38.847Z,7.01
2022-11-23T23:26:40.978Z,6.87
2022-11-23T23:29:43.030Z,6.62
2022-11-23T23:32:45.315Z,6.43
2022-11-23T23:35:47.522Z,6.29
2022-11-23T23:38:49.893Z,6.30
2022-11-23T23:41:52.014Z,6.69
2022-11-23T23:44:54.144Z,6.38
2022-11-23T23:47:57.915Z,6.84
2022-11-23T23:51:10.159Z,7.05
2022-11-23T23:54:12.305Z,7.04
2022-11-23T23:57:14.389Z,6.53
